Metar z połowy godziny Komunikat METAR ze strony awiacja.imgw.pl Metar G30 EPDE METAR EPDE 221430Z 29012KT CAVOK 19/03 Q1015 RMK 186 035 6/4=